• Join FlightAware (Why Join?)
  • Login
  • US Flag 
08:46AM EDT


 

Airport Tracker/Info


-or-


 

Live Flight TrackerFlight Track Log ✈ AWI3780 ✈ 23-Apr-2013 ✈ KBTV - KPHL

Flight Track Log - Related Links

Times and Time Zones

All times are in EDT time to prevent confusion due to time zone crossing. See the AWI3780 flight status page for this flight to view local times or setup timezone preferences in your user account.

Time Position Orientation Groundspeed Altitude Reporting Facility
EDT Latitude Longitude Course Direction KTS MPH feet Rate Location/Type
05:56PM 44.1782 -73.2554 196° South  Level FlightAware Approximate
05:56PM 44.3175 -73.1656 197° South 238 274 6,700  Level Boston Center
05:57PM 44.0823 -73.2938 196° South  Level FlightAware Approximate
05:57PM 44.2506 -73.1936 197° South 249 287 8,800  Level Boston Center
05:58PM 43.9864 -73.3322 196° South  Level FlightAware Approximate
05:58PM 44.1858 -73.2189 196° South 261 300 10,800  Level Boston Center
05:59PM 43.8905 -73.3702 195° South  Level FlightAware Approximate
05:59PM 44.1083 -73.2497 196° South 284 327 13,400  Level Boston Center
06:00PM 43.7941 -73.4058 195° South  Level FlightAware Approximate
06:00PM 44.0292 -73.2833 197° South 289 333 15,600  Level Boston Center
06:01PM 43.9494 -73.3197 198° South 300 345 17,700 1,680 Climbing Boston Center
06:02PM 43.8658 -73.3531 196° South 308 354 19,000 1,260 Climbing Boston Center
06:03PM 43.7761 -73.3889 196° South 323 372 20,300 1,500 Climbing Boston Center
06:04PM 43.6861 -73.4250 196° South 334 384 22,000 840 Climbing Boston Center
06:05PM 43.5794 -73.4689 197° South 353 406 22,000  Level Boston Center
06:06PM 43.4769 -73.5103 196° South 370 426 22,000  Level Boston Center
06:07PM 43.3786 -73.5483 196° South 370 426 22,000  Level Boston Center
06:09PM 43.2144 -73.7078 215° Southwest 364 419 22,000  Level Boston Center
06:10PM 43.1489 -73.7947 224° Southwest 370 426 22,000  Level Boston Center
06:11PM 43.0706 -73.8867 221° Southwest 370 426 22,000  Level Boston Center
06:12PM 42.9964 -73.9817 223° Southwest 370 426 22,000  Level Boston Center
06:13PM 42.9203 -74.0731 221° Southwest 370 426 22,000  Level Boston Center
06:14PM 42.8458 -74.1619 221° Southwest 370 426 22,000  Level Boston Center
06:15PM 42.7714 -74.2531 222° Southwest 370 426 22,000  Level Boston Center
06:16PM 42.6928 -74.3469 221° Southwest 370 426 22,000  Level Boston Center
06:17PM 42.6100 -74.4431 221° Southwest 377 434 22,000  Level Boston Center
06:18PM 42.5289 -74.5447 223° Southwest 388 447 22,000  Level Boston Center
06:19PM 42.4436 -74.6486 222° Southwest 402 463 22,000 -180 Level Boston Center
06:20PM 42.3561 -74.7469 220° Southwest 407 468 21,700 -660 Descending Boston Center
06:21PM 42.2625 -74.8358 215° Southwest 413 475 20,700 -1,020 Descending Boston Center
06:22PM 42.1772 -74.9253 218° Southwest 408 470 19,700 -540 Descending Boston Center
06:25PM 41.9617 -75.1386 216° Southwest 380 437 19,000 -240 Descending New York Center
06:26PM 41.8736 -75.2108 211° Southwest 375 432 19,000 -600 Level New York Center
06:27PM 41.7922 -75.2750 210° Southwest 380 437 17,900 -1,200 Descending New York Center
06:28PM 41.7061 -75.3469 212° Southwest 380 437 16,600 -1,560 Descending New York Center
06:29PM 41.6117 -75.4211 210° Southwest 380 437 14,900 -1,680 Descending New York Center
06:30PM 41.5256 -75.4869 210° Southwest 369 425 13,400 -1,380 Descending New York Center
06:31PM 41.4458 -75.5533 212° Southwest 356 410 12,100 -780 Descending New York Center
06:32PM 41.3708 -75.6117 210° Southwest 350 403 11,900 -60 Descending New York Center
06:33PM 41.2889 -75.6775 211° Southwest 355 409 12,000  Climbing New York Center
06:34PM 41.1925 -75.6897 185° South 338 389 12,000  Level New York Center
06:35PM 41.0842 -75.6875 179° South 349 402 12,000  Level New York Center
06:36PM 40.9864 -75.6886 180° South 355 409 12,000  Level New York Center
06:37PM 40.8906 -75.6872 179° South 355 409 12,000  Level New York Center
06:38PM 40.8031 -75.6864 180° South 349 402 12,000 -60 Level New York Center
06:39PM 40.6989 -75.6844 179° South 349 402 11,900 -420 Descending New York Center
06:40PM 40.6011 -75.6828 179° South 349 402 11,200 -780 Descending New York Center
06:40PM 40.5511 -75.6239 138° Southeast 350 403 10,700 -720 Descending FAA TRACON SMA TRACON (SMA)
06:41PM 40.5336 -75.5914 125° Southeast 350 403 10,500 -780 Descending FAA TRACON SMA TRACON (SMA)
06:41PM 40.5172 -75.5603 125° Southeast 340 391 10,200 -780 Descending FAA TRACON SMA TRACON (SMA)
06:41PM 40.4975 -75.5217 124° Southeast 333 383 10,000 -300 Descending FAA TRACON SMA TRACON (SMA)
06:42PM 40.4822 -75.4925 125° Southeast 317 365 10,000  Level FAA TRACON SMA TRACON (SMA)
06:42PM 40.4681 -75.4664 125° Southeast 306 352 10,000 -180 Level FAA TRACON SMA TRACON (SMA)
06:42PM 40.4464 -75.4336 131° Southeast 302 348 9,900 -480 Descending FAA TRACON SMA TRACON (SMA)
06:43PM 40.4247 -75.4181 151° Southeast 298 343 9,700 -600 Descending FAA TRACON SMA TRACON (SMA)
06:43PM 40.4017 -75.4044 156° South 310 357 9,500 -780 Descending FAA TRACON SMA TRACON (SMA)
06:43PM 40.3714 -75.3864 156° South 300 345 9,200 -1,380 Descending FAA TRACON SMA TRACON (SMA)
06:44PM 40.3481 -75.3731 156° South 299 344 8,600 -1,800 Descending FAA TRACON SMA TRACON (SMA)
06:44PM 40.3247 -75.3592 156° South 298 343 8,000 -1,800 Descending FAA TRACON SMA TRACON (SMA)
06:44PM 40.2961 -75.3428 156° South 294 338 7,400 -1,800 Descending FAA TRACON SMA TRACON (SMA)
06:45PM 40.2747 -75.3319 159° South 281 323 6,800 -1,500 Descending FAA TRACON SMA TRACON (SMA)
06:45PM 40.2506 -75.3342 184° South 272 313 6,400 -1,200 Descending FAA TRACON SMA TRACON (SMA)
06:45PM 40.2219 -75.3472 199° South 278 320 6,000 -600 Descending FAA TRACON SMA TRACON (SMA)
06:46PM 40.2006 -75.3575 200° South 260 299 6,000  Level FAA TRACON SMA TRACON (SMA)
06:46PM 40.1792 -75.3664 198° South 266 306 6,000  Level FAA TRACON SMA TRACON (SMA)
06:46PM 40.1531 -75.3794 201° Southwest 271 312 6,000  Level FAA TRACON SMA TRACON (SMA)
06:47PM 40.1075 -75.4006 200° South 274 315 6,000  Level FAA TRACON SMA TRACON (SMA)
06:47PM 40.0808 -75.4131 200° South 273 314 6,000  Level FAA TRACON SMA TRACON (SMA)
06:48PM 40.0564 -75.4147 183° South 274 315 6,000  Level FAA TRACON SMA TRACON (SMA)
06:48PM 40.0333 -75.4089 169° South 272 313 6,000  Level FAA TRACON SMA TRACON (SMA)
06:48PM 40.0058 -75.4008 167° South 272 313 6,000  Level FAA TRACON SMA TRACON (SMA)
06:49PM 39.9831 -75.3947 168° South 274 315 6,000 -180 Level FAA TRACON SMA TRACON (SMA)
06:49PM 39.9600 -75.3911 173° South 260 299 5,900  Descending FAA TRACON SMA TRACON (SMA)
06:49PM 39.9375 -75.4042 204° Southwest 226 260 6,000 120 Climbing FAA TRACON SMA TRACON (SMA)
06:50PM 39.9250 -75.4281 236° Southwest 217 250 6,000  Level FAA TRACON SMA TRACON (SMA)
06:50PM 39.9147 -75.4719 253° West 207 238 6,000 -120 Level FAA TRACON SMA TRACON (SMA)
06:51PM 39.9097 -75.4933 253° West 207 238 5,900 -600 Descending FAA TRACON SMA TRACON (SMA)
06:51PM 39.9044 -75.5158 253° West 207 238 5,600 -1,080 Descending FAA TRACON SMA TRACON (SMA)
06:51PM 39.8986 -75.5433 255° West 203 234 5,200 -1,200 Descending FAA TRACON SMA TRACON (SMA)
06:52PM 39.8900 -75.5617 239° Southwest 208 239 4,800 -1,380 Descending FAA TRACON SMA TRACON (SMA)
06:52PM 39.8786 -75.5794 230° Southwest 209 241 4,300 -1,200 Descending FAA TRACON SMA TRACON (SMA)
06:52PM 39.8642 -75.5994 227° Southwest 204 235 4,000 -780 Descending FAA TRACON SMA TRACON (SMA)
06:53PM 39.8500 -75.6144 219° Southwest 199 229 3,800 -600 Descending FAA TRACON SMA TRACON (SMA)
06:53PM 39.8344 -75.6133 177° South 204 235 3,600 -780 Descending FAA TRACON SMA TRACON (SMA)
06:53PM 39.8172 -75.6053 160° South 178 205 3,300 -900 Descending FAA TRACON SMA TRACON (SMA)
06:54PM 39.8111 -75.5872 114° Southeast 172 198 3,000 -480 Descending FAA TRACON SMA TRACON (SMA)
06:54PM 39.8056 -75.5658 109° East 170 196 3,000  Level FAA TRACON SMA TRACON (SMA)
06:54PM 39.8064 -75.5469 87° East 167 192 3,000  Level FAA TRACON SMA TRACON (SMA)
06:55PM 39.8094 -75.5294 77° East 167 192 3,000  Level FAA TRACON SMA TRACON (SMA)
06:55PM 39.8142 -75.5075 74° East 168 193 3,000  Level FAA TRACON SMA TRACON (SMA)
06:55PM 39.8178 -75.4892 76° East 168 193 3,000  Level FAA TRACON SMA TRACON (SMA)
06:56PM 39.8222 -75.4711 72° East 167 192 3,000 -180 Level FAA TRACON SMA TRACON (SMA)
06:56PM 39.8253 -75.4531 78° East 167 192 2,900 -780 Descending FAA TRACON SMA TRACON (SMA)
06:56PM 39.8294 -75.4306 76° East 167 192 2,500 -900 Descending FAA TRACON SMA TRACON (SMA)
06:57PM 39.8331 -75.4125 75° East 167 192 2,300 -780 Descending FAA TRACON SMA TRACON (SMA)
06:57PM 39.8369 -75.3914 77° East 160 184 2,000 -900 Descending FAA TRACON SMA TRACON (SMA)
06:57PM 39.8403 -75.3747 75° East 157 181 1,700 -960 Descending FAA TRACON SMA TRACON (SMA)
06:58PM 39.8439 -75.3583 74° East 156 180 1,400 -900 Descending FAA TRACON SMA TRACON (SMA)
06:58PM 39.8483 -75.3367 75° East 159 183 1,100 -780 Descending FAA TRACON SMA TRACON (SMA)
06:58PM 39.8517 -75.3206 75° East 151 174 900 -780 Descending FAA TRACON SMA TRACON (SMA)
06:59PM 39.8544 -75.3061 76° East 139 160 600 -900 Descending FAA TRACON SMA TRACON (SMA)
06:59PM 39.8581 -75.2883 75° East 135 155 300 -900 Descending FAA TRACON SMA TRACON (SMA)